Time;durP1;ratioP1;P1;durP2;ratioP2;P2;SDS_P1;SDS_P2;PMS_P1;PMS_P2;Temp;Humidity;BMP_temperature;BMP_pressure;BME280_temperature;BME280_humidity;BME280_pressure;Samples;Min_cycle;Max_cycle;Signal;HPM_P1;HPM_P2
2020/12/22 00:01:37;;;;;;;0.35;0.30;;;;;;;0.14;100.00;99907.91;4941638;29;20048;-71
2020/12/22 00:04:24;;;;;;;0.43;0.30;;;;;;;0.15;100.00;99912.16;4955151;28;20051;-68
2020/12/22 00:07:11;;;;;;;1.30;0.60;;;;;;;0.18;100.00;99911.19;4953174;29;20460;-70
2020/12/22 00:09:57;;;;;;;2.50;0.50;;;;;;;0.17;100.00;99912.09;4952217;28;20082;-70
2020/12/22 00:12:43;;;;;;;0.60;0.40;;;;;;;0.17;100.00;99909.50;4952282;29;20122;-67
2020/12/22 00:15:30;;;;;;;0.85;0.50;;;;;;;0.18;100.00;99912.03;4954272;29;20383;-65
2020/12/22 00:18:26;;;;;;;0.30;0.30;;;;;;;0.21;100.00;99913.66;4954595;28;20051;-68
2020/12/22 00:21:18;;;;;;;1.02;0.60;;;;;;;0.20;100.00;99920.53;4929368;28;746200;-68
2020/12/22 00:24:06;;;;;;;1.63;0.57;;;;;;;0.22;100.00;99920.47;4955723;28;20094;-67
2020/12/22 00:26:52;;;;;;;1.45;0.52;;;;;;;0.23;100.00;99922.97;4955611;28;21586;-65
2020/12/22 00:29:39;;;;;;;1.05;0.65;;;;;;;0.24;100.00;99916.13;4955555;29;20521;-69
2020/12/22 00:32:26;;;;;;;1.73;0.90;;;;;;;0.24;100.00;99916.13;4955584;28;20049;-70
2020/12/22 00:35:12;;;;;;;1.58;1.00;;;;;;;0.27;100.00;99922.88;4955218;28;20118;-67
2020/12/22 00:38:00;;;;;;;2.33;1.00;;;;;;;0.29;100.00;99927.09;4955191;28;20491;-70
2020/12/22 00:40:47;;;;;;;2.13;0.90;;;;;;;0.28;100.00;99919.41;4929002;28;20055;-66
2020/12/22 00:43:33;;;;;;;3.00;1.20;;;;;;;0.27;100.00;99910.03;4955330;29;20087;-70
2020/12/22 00:46:20;;;;;;;2.58;1.15;;;;;;;0.29;100.00;99926.25;4954953;28;20098;-67
2020/12/22 00:49:08;;;;;;;3.30;1.20;;;;;;;0.32;100.00;99918.41;4954255;29;20137;-67
2020/12/22 00:51:58;;;;;;;2.50;1.15;;;;;;;0.32;100.00;99921.00;4955145;28;20046;-68
2020/12/22 00:54:46;;;;;;;4.15;1.92;;;;;;;0.32;100.00;99921.00;4942857;29;20098;-70
2020/12/22 00:57:33;;;;;;;4.68;1.45;;;;;;;0.31;100.00;99919.31;4927552;29;20054;-70
2020/12/22 01:00:28;;;;;;;3.40;1.13;;;;;;;0.34;100.00;99925.19;4952064;28;20062;-68
2020/12/22 01:03:14;;;;;;;3.00;1.30;;;;;;;0.35;100.00;99923.47;4952431;29;20051;-71
2020/12/22 01:06:02;;;;;;;4.53;1.35;;;;;;;0.36;100.00;99920.84;4955104;29;20078;-69
2020/12/22 01:08:49;;;;;;;4.20;1.40;;;;;;;0.37;100.00;99927.66;4954727;28;20098;-67
2020/12/22 01:11:37;;;;;;;2.70;1.30;;;;;;;0.39;100.00;99928.44;4954865;28;20146;-68
2020/12/22 01:14:23;;;;;;;3.15;1.42;;;;;;;0.40;100.00;99919.84;4954873;29;20407;-66
2020/12/22 01:17:10;;;;;;;5.00;1.80;;;;;;;0.40;100.00;99924.13;4954561;28;20160;-70
2020/12/22 01:19:56;;;;;;;2.25;1.20;;;;;;;0.41;100.00;99928.38;4954846;28;20098;-70
2020/12/22 01:22:45;;;;;;;3.60;1.63;;;;;;;0.43;100.00;99930.03;4954980;29;20142;-68
2020/12/22 01:25:31;;;;;;;4.88;1.63;;;;;;;0.43;100.00;99922.31;4954753;28;20044;-69
2020/12/22 01:28:17;;;;;;;5.22;1.73;;;;;;;0.43;100.00;99913.75;4954759;28;20074;-67
2020/12/22 01:31:04;;;;;;;5.45;1.50;;;;;;;0.44;100.00;99920.56;4954510;29;20051;-70
2020/12/22 01:33:51;;;;;;;4.90;1.77;;;;;;;0.44;100.00;99929.13;4954884;28;20046;-70
2020/12/22 01:36:37;;;;;;;4.82;1.60;;;;;;;0.46;100.00;99936.78;4954307;28;20047;-70
2020/12/22 01:39:24;;;;;;;7.15;2.15;;;;;;;0.46;100.00;99935.03;4954061;28;20087;-70
2020/12/22 01:42:10;;;;;;;5.63;1.88;;;;;;;0.48;100.00;99924.72;4953988;28;20043;-69
2020/12/22 01:44:57;;;;;;;3.70;1.48;;;;;;;0.50;100.00;99922.91;4941128;29;20157;-69
2020/12/22 01:47:46;;;;;;;4.65;1.70;;;;;;;0.49;100.00;99918.66;4953975;29;20125;-68
2020/12/22 01:50:32;;;;;;;3.75;1.30;;;;;;;0.49;100.00;99916.09;4954031;28;20110;-69
2020/12/22 01:53:19;;;;;;;3.58;1.27;;;;;;;0.51;100.00;99924.59;4951793;28;20039;-69
2020/12/22 01:56:05;;;;;;;4.28;1.90;;;;;;;0.52;100.00;99918.53;4953843;28;20495;-66
2020/12/22 01:58:52;;;;;;;2.60;1.10;;;;;;;0.53;100.00;99924.56;4953861;28;20087;-71
2020/12/22 02:01:38;;;;;;;3.38;0.93;;;;;;;0.54;100.00;99927.06;4953835;29;20055;-67
2020/12/22 02:04:25;;;;;;;2.10;1.20;;;;;;;0.55;100.00;99923.59;4940467;29;20399;-71
2020/12/22 02:07:14;;;;;;;1.90;1.10;;;;;;;0.55;100.00;99926.16;4940052;29;20138;-67
2020/12/22 02:10:01;;;;;;;3.17;1.00;;;;;;;0.54;100.00;99928.78;4940904;29;20106;-67
2020/12/22 02:12:48;;;;;;;1.05;0.68;;;;;;;0.56;100.00;99924.41;4953208;28;20149;-69
2020/12/22 02:15:34;;;;;;;3.92;1.30;;;;;;;0.59;100.00;99926.91;4939993;28;20062;-68
2020/12/22 02:18:21;;;;;;;3.00;0.95;;;;;;;0.58;100.00;99917.50;4953475;28;20048;-67
2020/12/22 02:21:08;;;;;;;1.52;0.90;;;;;;;0.59;100.00;99922.59;4956398;28;20055;-68
2020/12/22 02:23:54;;;;;;;1.30;0.80;;;;;;;0.59;100.00;99922.59;4953309;29;20047;-67
2020/12/22 02:26:41;;;;;;;1.73;0.82;;;;;;;0.62;100.00;99921.63;4953424;28;20047;-68
2020/12/22 02:29:28;;;;;;;2.65;0.95;;;;;;;0.61;100.00;99920.78;4940076;29;20090;-70
2020/12/22 02:32:14;;;;;;;1.52;0.80;;;;;;;0.61;100.00;99913.06;4953413;29;20055;-70
2020/12/22 02:35:01;;;;;;;1.77;0.80;;;;;;;0.61;100.00;99914.78;4953411;29;20526;-69
2020/12/22 02:37:47;;;;;;;1.30;0.85;;;;;;;0.63;100.00;99913.88;4939822;28;20043;-71
2020/12/22 02:40:34;;;;;;;1.80;0.98;;;;;;;0.65;100.00;99908.66;4953188;28;20101;-68
2020/12/22 02:43:21;;;;;;;2.28;0.90;;;;;;;0.64;100.00;99902.66;4953237;29;20074;-70
2020/12/22 02:46:07;;;;;;;2.00;0.70;;;;;;;0.66;100.00;99906.00;4953331;29;20138;-68
2020/12/22 02:48:54;;;;;;;1.73;0.85;;;;;;;0.68;100.00;99905.97;4952911;29;20463;-67
2020/12/22 02:51:40;;;;;;;1.65;0.80;;;;;;;0.68;100.00;99903.41;4939791;29;20135;-66
2020/12/22 02:54:27;;;;;;;1.33;0.73;;;;;;;0.70;100.00;99904.16;4953124;29;20062;-69
2020/12/22 02:57:13;;;;;;;1.55;0.80;;;;;;;0.72;100.00;99910.13;4951544;29;20043;-68
2020/12/22 03:00:00;;;;;;;1.88;1.02;;;;;;;0.71;100.00;99899.00;4938087;29;20082;-70
2020/12/22 03:02:46;;;;;;;2.50;1.10;;;;;;;0.72;100.00;99905.81;4953010;29;20123;-67
2020/12/22 03:05:33;;;;;;;0.80;0.45;;;;;;;0.73;100.00;99907.47;4952564;28;20074;-68
2020/12/22 03:08:20;;;;;;;3.17;1.23;;;;;;;0.73;100.00;99904.06;4939450;29;20110;-71
2020/12/22 03:11:06;;;;;;;5.57;1.30;;;;;;;0.75;100.00;99908.25;4952832;28;20106;-70
2020/12/22 03:13:53;;;;;;;2.05;0.90;;;;;;;0.76;100.00;99902.22;4952782;28;20502;-71
2020/12/22 03:16:39;;;;;;;3.20;0.90;;;;;;;0.77;100.00;99903.91;4952475;28;20110;-66
2020/12/22 03:19:26;;;;;;;3.03;1.10;;;;;;;0.77;100.00;99903.06;4952682;29;20043;-66
2020/12/22 03:22:12;;;;;;;3.10;1.00;;;;;;;0.79;100.00;99901.25;4952341;29;20059;-68
2020/12/22 03:24:59;;;;;;;4.00;1.30;;;;;;;0.79;100.00;99897.84;4952643;29;20055;-68
2020/12/22 03:27:45;;;;;;;2.22;0.90;;;;;;;0.79;100.00;99897.84;4952355;28;20083;-67
2020/12/22 03:30:32;;;;;;;2.25;1.27;;;;;;;0.81;100.00;99896.91;4950156;28;20043;-66
2020/12/22 03:33:18;;;;;;;3.42;1.40;;;;;;;0.84;100.00;99911.38;4952645;28;20445;-68
2020/12/22 03:36:04;;;;;;;3.50;1.40;;;;;;;0.84;100.00;99903.66;4952297;29;20561;-68
2020/12/22 03:38:51;;;;;;;3.00;1.27;;;;;;;0.87;100.00;99899.25;4952347;29;20447;-66
2020/12/22 03:41:37;;;;;;;3.25;1.13;;;;;;;0.91;100.00;99905.13;4953902;28;20078;-66
2020/12/22 03:44:24;;;;;;;3.78;1.60;;;;;;;0.90;100.00;99901.72;4952615;29;20142;-67
2020/12/22 03:47:11;;;;;;;5.72;1.67;;;;;;;0.92;100.00;99909.38;4938825;29;20126;-69
2020/12/22 03:49:57;;;;;;;3.08;1.10;;;;;;;0.94;100.00;99908.41;4952731;29;20567;-67
2020/12/22 03:52:44;;;;;;;2.92;1.30;;;;;;;0.93;100.00;99905.88;4952316;28;20061;-69
2020/12/22 03:55:30;;;;;;;3.30;1.65;;;;;;;0.96;100.00;99911.75;4952799;29;20116;-67
2020/12/22 03:58:17;;;;;;;4.30;1.60;;;;;;;0.99;100.00;99915.94;4938841;29;20043;-68
2020/12/22 04:01:03;;;;;;;3.95;1.67;;;;;;;0.99;100.00;99911.63;4947592;29;20052;-69
2020/12/22 04:03:50;;;;;;;3.40;1.30;;;;;;;1.01;100.00;99914.16;4949622;29;20090;-68
2020/12/22 04:06:37;;;;;;;3.20;1.70;;;;;;;1.01;100.00;99911.59;4949886;28;20059;-67
2020/12/22 04:09:23;;;;;;;3.22;1.40;;;;;;;1.03;100.00;99914.94;4938741;29;20126;-68
2020/12/22 04:12:10;;;;;;;3.40;1.65;;;;;;;1.05;100.00;99914.91;4952140;29;20048;-68
2020/12/22 04:15:00;;;;;;;3.00;1.48;;;;;;;1.06;100.00;99912.25;4952141;28;20082;-65
2020/12/22 04:17:46;;;;;;;1.83;1.02;;;;;;;1.07;100.00;99915.66;4951816;28;20066;-70
2020/12/22 04:20:33;;;;;;;2.00;1.10;;;;;;;1.06;100.00;99917.41;4951096;28;20051;-67
2020/12/22 04:23:20;;;;;;;2.53;1.20;;;;;;;1.08;100.00;99912.19;4952027;29;20510;-68
2020/12/22 04:26:06;;;;;;;2.17;1.20;;;;;;;1.08;100.00;99920.75;4951806;29;20058;-66
2020/12/22 04:28:53;;;;;;;1.60;0.80;;;;;;;1.09;100.00;99911.28;4951800;28;20047;-69
2020/12/22 04:31:40;;;;;;;2.13;1.08;;;;;;;1.09;100.00;99916.44;4952342;28;20473;-69
2020/12/22 04:34:26;;;;;;;2.35;0.80;;;;;;;1.10;100.00;99918.13;4938886;29;20110;-65
2020/12/22 04:37:12;;;;;;;3.28;1.00;;;;;;;1.07;100.00;99908.78;4955171;29;20170;-68
2020/12/22 04:39:59;;;;;;;3.13;0.95;;;;;;;1.09;100.00;99912.13;4955518;29;20047;-66
2020/12/22 04:42:49;;;;;;;2.03;0.90;;;;;;;1.11;100.00;99914.66;4955514;28;20051;-66
2020/12/22 04:45:36;;;;;;;1.90;0.98;;;;;;;1.08;100.00;99910.44;4954965;28;20055;-68
2020/12/22 04:48:24;;;;;;;1.70;0.90;;;;;;;1.09;100.00;99906.97;4941696;29;20078;-69
2020/12/22 04:51:27;;;;;;;1.67;0.80;;;;;;;1.12;100.00;99912.00;4955339;28;20110;-66
2020/12/22 04:54:24;;;;;;;1.23;0.85;;;;;;;1.13;100.00;99911.09;4955142;28;20087;-67
2020/12/22 04:57:14;;;;;;;1.15;0.65;;;;;;;1.14;100.00;99909.38;4954710;28;20048;-69
2020/12/22 05:00:02;;;;;;;1.77;0.65;;;;;;;1.12;100.00;99906.03;4955043;28;20507;-69
2020/12/22 05:02:51;;;;;;;1.13;0.73;;;;;;;1.11;100.00;99912.91;4941681;29;20055;-68
2020/12/22 05:05:37;;;;;;;1.33;0.68;;;;;;;1.12;100.00;99917.16;4953006;29;20051;-68
2020/12/22 05:08:23;;;;;;;1.35;0.65;;;;;;;1.13;100.00;99911.09;4954714;29;20051;-68
2020/12/22 05:11:17;;;;;;;2.75;1.20;;;;;;;1.14;100.00;99910.22;4955374;28;20051;-66
2020/12/22 05:14:07;;;;;;;3.65;1.20;;;;;;;1.13;100.00;99908.53;4954753;29;20047;-70
2020/12/22 05:16:55;;;;;;;1.55;0.80;;;;;;;1.14;100.00;99906.78;4955037;29;20047;-68
2020/12/22 05:19:42;;;;;;;1.75;0.90;;;;;;;1.13;100.00;99903.38;4941324;29;20051;-71
2020/12/22 05:22:28;;;;;;;1.50;0.70;;;;;;;1.14;100.00;99912.81;4941201;29;20102;-66
2020/12/22 05:25:19;;;;;;;1.02;0.60;;;;;;;1.17;100.00;99906.69;4954600;28;20051;-67
2020/12/22 05:28:06;;;;;;;1.58;0.82;;;;;;;1.18;100.00;99905.78;4954361;29;20047;-70
2020/12/22 05:30:53;;;;;;;2.75;1.00;;;;;;;1.17;100.00;99904.09;4954509;28;20149;-69
2020/12/22 05:33:46;;;;;;;1.08;0.70;;;;;;;1.21;100.00;99905.66;4954328;28;20087;-69
2020/12/22 05:36:34;;;;;;;1.83;0.90;;;;;;;1.22;100.00;99907.34;4951734;29;20146;-66
2020/12/22 05:39:21;;;;;;;4.53;2.55;;;;;;;1.21;100.00;99911.66;4953128;28;20054;-69
2020/12/22 05:42:14;;;;;;;2.20;1.00;;;;;;;1.22;100.00;99900.44;4938093;29;20047;-67
2020/12/22 05:45:07;;;;;;;1.90;1.08;;;;;;;1.22;100.00;99905.59;4954610;28;20083;-69
2020/12/22 05:47:54;;;;;;;1.27;0.85;;;;;;;1.22;100.00;99900.44;4953360;28;20079;-66
2020/12/22 05:50:47;;;;;;;2.15;0.75;;;;;;;1.24;100.00;99902.97;4954085;29;20051;-69
2020/12/22 05:53:42;;;;;;;1.75;0.93;;;;;;;1.24;100.00;99897.84;4940914;29;20098;-67
2020/12/22 05:56:28;;;;;;;2.03;1.08;;;;;;;1.24;100.00;99898.66;4953692;29;20055;-66
2020/12/22 05:59:21;;;;;;;2.70;1.00;;;;;;;1.25;100.00;99907.22;4940427;29;20058;-68
2020/12/22 06:02:09;;;;;;;2.33;1.10;;;;;;;1.27;100.00;99910.56;4940645;29;20051;-69
2020/12/22 06:05:04;;;;;;;2.92;1.08;;;;;;;1.25;100.00;99905.50;4953659;29;20039;-69
2020/12/22 06:07:51;;;;;;;3.83;1.25;;;;;;;1.28;100.00;99915.69;4953034;28;20051;-67
2020/12/22 06:10:39;;;;;;;2.92;0.95;;;;;;;1.31;100.00;99922.44;4953548;28;20043;-70
2020/12/22 06:13:26;;;;;;;3.17;1.02;;;;;;;1.28;100.00;99914.81;4953576;29;20402;-68
2020/12/22 06:16:17;;;;;;;2.20;0.85;;;;;;;1.32;100.00;99912.97;4953597;29;20098;-67
2020/12/22 06:19:06;;;;;;;1.55;0.95;;;;;;;1.36;100.00;99917.09;4953575;29;20141;-68
2020/12/22 06:21:57;;;;;;;2.38;1.17;;;;;;;1.36;100.00;99922.25;4954520;28;20062;-67
2020/12/22 06:24:45;;;;;;;5.03;0.98;;;;;;;1.37;100.00;99919.59;4953524;28;20091;-68
2020/12/22 06:27:33;;;;;;;3.53;1.20;;;;;;;1.38;100.00;99925.63;4953519;29;20499;-68
2020/12/22 06:30:30;;;;;;;3.15;1.23;;;;;;;1.40;100.00;99921.25;4953598;29;20514;-67
2020/12/22 06:33:23;;;;;;;2.92;1.23;;;;;;;1.38;100.00;99916.16;4953633;29;20055;-69
2020/12/22 06:36:17;;;;;;;3.78;1.30;;;;;;;1.41;100.00;99922.91;4953090;29;20164;-65
2020/12/22 06:39:03;;;;;;;2.13;1.17;;;;;;;1.40;100.00;99926.38;4953179;28;20074;-66
2020/12/22 06:41:50;;;;;;;2.47;1.05;;;;;;;1.39;100.00;99928.13;4952179;28;20047;-66
2020/12/22 06:44:37;;;;;;;2.22;1.13;;;;;;;1.39;100.00;99929.88;4953008;28;20054;-67
2020/12/22 06:47:34;;;;;;;2.38;1.27;;;;;;;1.43;100.00;99931.44;4939772;29;20098;-68
2020/12/22 06:50:43;;;;;;;1.73;1.15;;;;;;;1.40;100.00;99923.81;4953342;29;20094;-69
2020/12/22 06:53:35;;;;;;;3.28;1.35;;;;;;;1.43;100.00;99934.84;4953197;28;20079;-68
2020/12/22 06:56:39;;;;;;;4.13;1.80;;;;;;;1.44;100.00;99933.94;4952797;29;20134;-69
2020/12/22 06:59:42;;;;;;;2.97;1.60;;;;;;;1.44;100.00;99938.25;4953090;28;20145;-66
2020/12/22 07:02:38;;;;;;;2.63;1.27;;;;;;;1.44;100.00;99941.66;4952367;29;20055;-68
2020/12/22 07:05:37;;;;;;;2.88;1.75;;;;;;;1.40;100.00;99940.09;4951221;29;20078;-66
2020/12/22 07:08:28;;;;;;;4.15;2.25;;;;;;;1.45;100.00;99951.06;4951261;28;20458;-67
2020/12/22 07:11:19;;;;;;;3.92;1.80;;;;;;;1.45;100.00;99951.06;4951254;29;20047;-67
2020/12/22 07:14:06;;;;;;;1.92;1.30;;;;;;;1.45;100.00;99945.09;4948833;28;20043;-67
2020/12/22 07:16:59;;;;;;;3.15;1.67;;;;;;;1.46;100.00;99946.75;4937498;29;20063;-65
2020/12/22 07:19:48;;;;;;;3.22;1.67;;;;;;;1.47;100.00;99954.44;4939067;29;20059;-67
2020/12/22 07:22:52;;;;;;;2.22;1.38;;;;;;;1.48;100.00;99958.69;4952358;28;20047;-69
2020/12/22 07:25:53;;;;;;;2.90;1.55;;;;;;;1.49;100.00;99957.78;4952026;28;20059;-68
2020/12/22 07:28:40;;;;;;;4.38;2.10;;;;;;;1.52;100.00;99965.41;4938500;28;20109;-65
2020/12/22 07:31:27;;;;;;;4.70;1.77;;;;;;;1.53;100.00;99963.66;4952266;28;20070;-68
2020/12/22 07:34:14;;;;;;;5.38;1.83;;;;;;;1.57;100.00;99962.66;4952189;28;20047;-70
2020/12/22 07:37:12;;;;;;;3.63;1.98;;;;;;;1.61;100.00;99971.06;4951993;28;20051;-67
2020/12/22 07:40:08;;;;;;;5.47;2.45;;;;;;;1.61;100.00;99968.50;4938797;29;20519;-68
2020/12/22 07:43:08;;;;;;;2.90;1.65;;;;;;;1.62;100.00;99968.47;4952115;28;20043;-65
2020/12/22 07:45:55;;;;;;;3.50;1.80;;;;;;;1.64;100.00;99970.97;4948865;28;20079;-65
2020/12/22 07:48:42;;;;;;;3.05;1.92;;;;;;;1.62;100.00;99967.63;4952144;28;20454;-68
2020/12/22 07:51:28;;;;;;;3.65;2.30;;;;;;;1.64;100.00;99971.78;4952036;29;20577;-68
2020/12/22 07:54:16;;;;;;;3.17;1.60;;;;;;;1.65;100.00;99972.63;4952069;28;20110;-70
2020/12/22 07:57:02;;;;;;;3.25;2.00;;;;;;;1.64;100.00;99968.38;4952296;29;20065;-69
2020/12/22 07:59:59;;;;;;;3.40;1.85;;;;;;;1.65;100.00;99973.47;4936101;29;20395;-67
2020/12/22 08:02:46;;;;;;;3.13;1.75;;;;;;;1.67;100.00;99974.25;4952047;29;20051;-66
2020/12/22 08:05:32;;;;;;;3.40;1.83;;;;;;;1.68;100.00;99973.34;4952094;29;20083;-67
2020/12/22 08:08:19;;;;;;;4.25;2.17;;;;;;;1.71;100.00;99974.97;4951775;28;20051;-69
2020/12/22 08:11:06;;;;;;;2.65;1.50;;;;;;;1.74;100.00;99969.69;4943974;29;20565;-69
2020/12/22 08:13:54;;;;;;;3.65;2.10;;;;;;;1.76;100.00;99978.22;4954387;28;21532;-65
2020/12/22 08:16:40;;;;;;;3.80;1.98;;;;;;;1.78;100.00;99981.56;4951759;28;20082;-68
2020/12/22 08:19:34;;;;;;;4.32;1.63;;;;;;;1.78;100.00;99984.13;4953317;28;20055;-68
2020/12/22 08:22:20;;;;;;;3.07;1.70;;;;;;;1.77;100.00;99988.47;4942245;29;20130;-67
2020/12/22 08:25:07;;;;;;;3.30;1.75;;;;;;;1.77;100.00;99993.63;4955417;29;20054;-67
2020/12/22 08:27:54;;;;;;;3.75;1.63;;;;;;;1.78;100.00;99997.88;4941714;28;20470;-69
2020/12/22 08:30:41;;;;;;;3.20;1.98;;;;;;;1.78;100.00;99997.03;4955363;28;20137;-68
2020/12/22 08:33:31;;;;;;;3.78;2.00;;;;;;;1.77;100.00;100001.34;4955229;28;20047;-67
2020/12/22 08:36:20;;;;;;;4.18;2.00;;;;;;;1.79;100.00;99998.69;4954916;29;20146;-68
2020/12/22 08:39:24;;;;;;;4.13;2.25;;;;;;;1.83;100.00;99994.25;4954899;28;20058;-67
2020/12/22 08:42:11;;;;;;;3.35;1.73;;;;;;;1.80;100.00;99995.22;4955261;29;20047;-66
2020/12/22 08:44:58;;;;;;;3.15;1.80;;;;;;;1.84;100.00;99990.78;4955269;29;20055;-69
2020/12/22 08:47:52;;;;;;;3.80;1.77;;;;;;;1.85;100.00;99995.88;4954654;28;20050;-70
2020/12/22 08:50:47;;;;;;;3.72;1.40;;;;;;;1.85;100.00;100006.19;4941956;29;20506;-66
2020/12/22 08:53:56;;;;;;;3.60;1.80;;;;;;;1.84;100.00;99996.78;4954931;29;20407;-67
2020/12/22 08:56:43;;;;;;;3.53;1.40;;;;;;;1.86;100.00;99996.72;4954728;28;20051;-69
2020/12/22 08:59:29;;;;;;;2.28;1.20;;;;;;;1.86;100.00;100000.16;4941906;29;20080;-70
2020/12/22 09:02:26;;;;;;;3.15;1.80;;;;;;;1.88;100.00;100011.22;4954896;29;20101;-69
2020/12/22 09:05:17;;;;;;;2.83;1.38;;;;;;;1.89;100.00;100006.91;4954779;29;20454;-68
2020/12/22 09:08:05;;;;;;;2.45;1.30;;;;;;;1.90;100.00;100009.44;4954878;29;20051;-68
2020/12/22 09:10:52;;;;;;;2.97;1.63;;;;;;;1.92;100.00;100006.78;4953507;29;20464;-66
2020/12/22 09:13:38;;;;;;;4.20;1.58;;;;;;;1.93;100.00;100001.56;4941485;29;20094;-69
2020/12/22 09:16:25;;;;;;;3.95;2.03;;;;;;;1.95;100.00;100001.53;4954690;29;20051;-67
2020/12/22 09:19:12;;;;;;;3.60;2.08;;;;;;;1.96;100.00;100009.19;4940952;29;20126;-69
2020/12/22 09:22:03;;;;;;;3.03;1.42;;;;;;;1.97;100.00;100005.69;4938017;29;20162;-67
2020/12/22 09:24:58;;;;;;;1.90;1.05;;;;;;;1.99;100.00;100011.66;4954261;29;20055;-70
2020/12/22 09:27:46;;;;;;;2.80;1.40;;;;;;;2.00;100.00;100015.06;4954086;28;20166;-68
2020/12/22 09:30:35;;;;;;;3.05;1.60;;;;;;;1.96;100.00;100009.19;4941171;29;20106;-69
2020/12/22 09:33:21;;;;;;;2.75;1.70;;;;;;;1.98;100.00;100003.97;4954357;29;20107;-69
2020/12/22 09:36:11;;;;;;;5.53;1.90;;;;;;;1.98;100.00;100007.38;4953995;28;20046;-69
2020/12/22 09:39:03;;;;;;;2.70;1.52;;;;;;;1.99;100.00;100013.38;4953837;28;20083;-70
2020/12/22 09:41:49;;;;;;;4.75;1.75;;;;;;;1.96;100.00;100008.34;4940878;29;20051;-68
2020/12/22 09:44:36;;;;;;;3.78;1.98;;;;;;;1.98;100.00;100011.69;4954030;29;20409;-66
2020/12/22 09:47:22;;;;;;;3.80;1.77;;;;;;;1.98;100.00;100011.69;4953644;29;20454;-69
2020/12/22 09:50:09;;;;;;;2.13;1.20;;;;;;;1.99;100.00;100013.38;4953446;29;20067;-69
2020/12/22 09:52:55;;;;;;;2.83;1.20;;;;;;;1.99;100.00;100018.53;4949941;29;20059;-68
2020/12/22 09:55:42;;;;;;;2.47;1.50;;;;;;;1.99;100.00;100019.38;4953850;28;20071;-70
2020/12/22 09:58:40;;;;;;;3.10;1.20;;;;;;;1.94;100.00;100017.88;4953619;28;20107;-68
2020/12/22 10:01:27;;;;;;;1.88;1.30;;;;;;;1.91;100.00;100018.84;4927461;29;20074;-67
2020/12/22 10:04:14;;;;;;;3.30;1.95;;;;;;;1.89;100.00;100019.78;4953466;28;20055;-69
2020/12/22 10:07:03;;;;;;;4.80;2.13;;;;;;;1.89;100.00;100019.78;4952471;29;20047;-67
2020/12/22 10:09:50;;;;;;;4.25;1.75;;;;;;;1.87;100.00;100024.19;4939455;29;20055;-70
2020/12/22 10:12:36;;;;;;;3.42;2.00;;;;;;;1.87;100.00;100024.19;4953494;28;20054;-67
2020/12/22 10:15:22;;;;;;;3.97;2.47;;;;;;;1.86;100.00;100031.09;4953776;29;20499;-67
2020/12/22 10:18:09;;;;;;;3.25;1.85;;;;;;;1.84;100.00;100024.31;4953173;28;20058;-66
2020/12/22 10:20:55;;;;;;;4.63;2.95;;;;;;;1.84;100.00;100030.28;4953393;29;20059;-69
2020/12/22 10:23:44;;;;;;;2.55;1.70;;;;;;;1.82;100.00;100024.38;4953383;28;20091;-67
2020/12/22 10:26:31;;;;;;;3.30;2.00;;;;;;;1.81;100.00;100029.59;4951527;28;20146;-67
2020/12/22 10:29:18;;;;;;;2.78;1.73;;;;;;;1.79;100.00;100033.06;4953419;29;20636;-71
2020/12/22 10:32:04;;;;;;;3.72;2.00;;;;;;;1.79;100.00;100035.63;4952863;28;20043;-69
2020/12/22 10:34:51;;;;;;;3.72;2.20;;;;;;;1.77;100.00;100032.28;4953260;29;20564;-69
2020/12/22 10:37:38;;;;;;;3.38;2.03;;;;;;;1.78;100.00;100033.13;4953422;29;20090;-67
2020/12/22 10:40:24;;;;;;;4.60;2.75;;;;;;;1.78;100.00;100026.22;4953519;29;20138;-69
2020/12/22 10:43:11;;;;;;;3.05;2.10;;;;;;;1.80;100.00;100033.88;4953208;28;20039;-67
2020/12/22 10:45:58;;;;;;;2.92;1.73;;;;;;;1.79;100.00;100032.22;4953151;29;20121;-68
2020/12/22 10:48:45;;;;;;;5.55;2.17;;;;;;;1.76;100.00;100040.94;4939814;28;20479;-69
2020/12/22 10:51:32;;;;;;;4.97;2.70;;;;;;;1.77;100.00;100040.03;4953457;29;20054;-70
2020/12/22 10:54:18;;;;;;;4.20;2.08;;;;;;;1.77;100.00;100045.19;4953005;29;20047;-68
2020/12/22 10:57:05;;;;;;;6.75;3.20;;;;;;;1.76;100.00;100035.78;4953288;28;20051;-71
2020/12/22 10:59:51;;;;;;;3.92;2.33;;;;;;;1.76;100.00;100038.34;4952993;28;20051;-70
2020/12/22 11:02:38;;;;;;;5.50;2.42;;;;;;;1.77;100.00;100039.19;4953109;29;20071;-68
2020/12/22 11:06:20;;;;;;;3.13;1.90;;;;;;;1.78;100.00;100043.44;4953042;28;20039;-69
2020/12/22 11:08:41;;;;;;;3.47;2.10;;;;;;;1.79;100.00;100047.69;4952483;28;20057;-67
2020/12/22 11:11:28;;;;;;;4.43;1.75;;;;;;;1.77;100.00;100050.34;4952900;29;20074;-67
2020/12/22 11:14:15;;;;;;;3.47;1.58;;;;;;;1.79;100.00;100035.63;4952702;28;20055;-69
2020/12/22 11:17:01;;;;;;;2.22;1.33;;;;;;;1.80;100.00;100036.47;4952517;29;20082;-69
2020/12/22 11:19:47;;;;;;;5.65;1.95;;;;;;;1.83;100.00;100032.94;4952481;29;20051;-68
2020/12/22 11:22:34;;;;;;;2.97;1.50;;;;;;;1.84;100.00;100034.63;4939375;29;20130;-68
2020/12/22 11:25:32;;;;;;;3.45;1.58;;;;;;;1.85;100.00;100033.72;4939456;29;20055;-68
2020/12/22 11:28:18;;;;;;;3.55;1.92;;;;;;;1.86;100.00;100033.66;4952293;29;20094;-68
2020/12/22 11:31:05;;;;;;;4.07;1.70;;;;;;;1.85;100.00;100039.69;4952468;28;20082;-69
2020/12/22 11:33:52;;;;;;;3.08;1.77;;;;;;;1.83;100.00;100046.66;4939190;28;20134;-70
2020/12/22 11:36:38;;;;;;;3.45;1.60;;;;;;;1.84;100.00;100048.34;4952343;28;20051;-70
2020/12/22 11:39:26;;;;;;;4.88;1.63;;;;;;;1.83;100.00;100051.00;4952337;29;20138;-69
2020/12/22 11:42:12;;;;;;;2.28;1.30;;;;;;;1.82;100.00;100050.16;4952599;29;20219;-69
2020/12/22 11:44:59;;;;;;;3.95;1.42;;;;;;;1.82;100.00;100049.31;4942362;28;20498;-70
2020/12/22 11:47:45;;;;;;;2.50;1.30;;;;;;;1.82;100.00;100055.31;4942680;28;20153;-71
2020/12/22 11:50:32;;;;;;;4.32;1.55;;;;;;;1.81;100.00;100050.22;4956498;29;20062;-70
2020/12/22 11:53:19;;;;;;;2.95;1.30;;;;;;;1.81;100.00;100053.63;4956287;28;20095;-69
2020/12/22 11:56:08;;;;;;;3.72;1.75;;;;;;;1.81;100.00;100057.97;4956078;28;20495;-68
2020/12/22 11:58:57;;;;;;;2.38;1.23;;;;;;;1.82;100.00;100057.88;4956371;28;20053;-69
2020/12/22 12:01:43;;;;;;;2.67;1.20;;;;;;;1.81;100.00;100045.06;4941807;28;20106;-68
2020/12/22 12:04:30;;;;;;;2.63;1.50;;;;;;;1.82;100.00;100045.00;4956050;28;20163;-67
2020/12/22 12:07:16;;;;;;;3.25;1.70;;;;;;;1.81;100.00;100052.81;4956138;29;20380;-70
2020/12/22 12:10:04;;;;;;;2.70;1.40;;;;;;;1.82;100.00;100062.22;4942603;29;20131;-70
2020/12/22 12:12:50;;;;;;;3.08;1.67;;;;;;;1.78;100.00;100066.63;4955913;29;20055;-69
2020/12/22 12:15:37;;;;;;;3.67;1.45;;;;;;;1.79;100.00;100058.00;4955790;28;20110;-71
2020/12/22 12:18:23;;;;;;;2.90;1.33;;;;;;;1.77;100.00;100062.38;4955555;29;20392;-70
2020/12/22 12:21:14;;;;;;;3.20;1.05;;;;;;;1.73;100.00;100061.66;4955671;29;20161;-68
2020/12/22 12:24:01;;;;;;;3.20;1.40;;;;;;;1.68;100.00;100066.16;4956425;28;20079;-68
2020/12/22 12:26:48;;;;;;;2.90;1.30;;;;;;;1.66;100.00;100070.53;4955442;28;20055;-69
2020/12/22 12:29:34;;;;;;;2.28;1.30;;;;;;;1.64;100.00;100068.91;4955649;28;20051;-68
2020/12/22 12:32:29;;;;;;;2.17;1.30;;;;;;;1.59;100.00;100074.22;4955726;28;20062;-71
2020/12/22 12:35:15;;;;;;;2.65;1.35;;;;;;;1.53;100.00;100080.47;4953533;28;20047;-67
2020/12/22 12:38:05;;;;;;;3.03;1.40;;;;;;;1.51;100.00;100079.66;4955153;28;20110;-68
2020/12/22 12:40:51;;;;;;;2.80;1.25;;;;;;;1.46;100.00;100073.00;4955440;28;20043;-70
2020/12/22 12:43:38;;;;;;;1.83;1.10;;;;;;;1.47;100.00;100085.84;4942261;29;20055;-67
2020/12/22 12:46:25;;;;;;;2.30;1.00;;;;;;;1.45;100.00;100082.47;4941849;29;20118;-70
2020/12/22 12:49:13;;;;;;;4.85;2.10;;;;;;;1.45;100.00;100081.63;4955097;28;20502;-70
2020/12/22 12:51:59;;;;;;;2.92;1.30;;;;;;;1.42;100.00;100082.59;4955918;28;20051;-67
2020/12/22 12:54:46;;;;;;;2.20;1.35;;;;;;;1.41;100.00;100075.75;4954118;28;20051;-70
2020/12/22 12:57:32;;;;;;;3.42;1.52;;;;;;;1.38;100.00;100077.63;4954972;29;20518;-71
2020/12/22 13:00:19;;;;;;;2.83;1.40;;;;;;;1.36;100.00;100080.25;4955245;28;20561;-69
2020/12/22 13:03:05;;;;;;;5.28;1.30;;;;;;;1.31;100.00;100087.31;4954996;29;20106;-70
2020/12/22 13:05:51;;;;;;;2.53;1.25;;;;;;;1.29;100.00;100083.97;4951825;28;20443;-69
2020/12/22 13:08:42;;;;;;;3.08;1.58;;;;;;;1.26;100.00;100087.47;4954675;28;20391;-69
2020/12/22 13:11:31;;;;;;;2.88;1.40;;;;;;;1.24;100.00;100086.69;4941833;29;20043;-67